createdAt,value
2023-12-09T00:00:55.176Z,66.41
2023-12-09T00:03:22.912Z,65.85
2023-12-09T00:05:50.493Z,66.73
2023-12-09T00:08:17.988Z,65.67
2023-12-09T00:10:45.750Z,65.86
2023-12-09T00:13:13.230Z,66.47
2023-12-09T00:15:40.671Z,66.90
2023-12-09T00:18:09.097Z,67.58
2023-12-09T00:20:36.548Z,67.30
2023-12-09T00:23:03.969Z,66.97
2023-12-09T00:25:31.633Z,67.52
2023-12-09T00:27:59.024Z,67.22
2023-12-09T00:30:26.610Z,67.04
2023-12-09T00:32:54.504Z,67.42
2023-12-09T00:35:22.675Z,66.99
2023-12-09T00:37:50.072Z,69.89
2023-12-09T00:40:19.016Z,67.28
2023-12-09T00:42:49.223Z,67.89
2023-12-09T00:45:16.758Z,67.23
2023-12-09T00:47:44.618Z,67.62
2023-12-09T00:50:12.058Z,67.71
2023-12-09T00:52:39.439Z,66.48
2023-12-09T00:55:07.681Z,66.97
2023-12-09T00:57:35.133Z,67.92
2023-12-09T01:00:03.573Z,66.67
2023-12-09T01:02:32.451Z,66.19
2023-12-09T01:04:59.955Z,66.19
2023-12-09T01:07:27.399Z,67.06
2023-12-09T01:09:55.407Z,65.46
2023-12-09T01:12:22.862Z,66.09
2023-12-09T01:14:51.531Z,66.89
2023-12-09T01:17:19.257Z,65.72
2023-12-09T01:19:46.688Z,67.20
2023-12-09T01:22:14.372Z,66.52
2023-12-09T01:24:42.025Z,66.54
2023-12-09T01:27:09.512Z,66.87
2023-12-09T01:29:40.683Z,66.39
2023-12-09T01:32:08.594Z,66.19
2023-12-09T01:34:39.748Z,66.34
2023-12-09T01:37:07.695Z,65.70
2023-12-09T01:39:35.121Z,65.20
2023-12-09T01:42:04.200Z,65.94
2023-12-09T01:44:31.910Z,66.32
2023-12-09T01:46:59.304Z,65.89
2023-12-09T01:49:26.979Z,66.13
2023-12-09T01:51:55.627Z,67.01
2023-12-09T01:54:23.177Z,66.31
2023-12-09T01:56:50.617Z,65.86
2023-12-09T01:59:18.508Z,66.24
2023-12-09T02:01:46.338Z,66.77
2023-12-09T02:04:14.493Z,66.97
2023-12-09T02:06:42.312Z,70.42
2023-12-09T02:09:10.519Z,68.91
2023-12-09T02:11:45.401Z,67.88
2023-12-09T02:14:17.993Z,67.71
2023-12-09T02:17:41.720Z,68.81
2023-12-09T02:20:12.420Z,67.68
2023-12-09T02:22:39.852Z,67.32
2023-12-09T02:25:08.171Z,67.43
2023-12-09T02:28:00.576Z,66.42
2023-12-09T02:30:50.750Z,66.63
2023-12-09T02:33:21.864Z,67.15
2023-12-09T02:35:51.938Z,65.78
2023-12-09T02:38:20.058Z,65.69
2023-12-09T02:40:48.086Z,66.90
2023-12-09T02:43:15.477Z,67.12
2023-12-09T02:45:45.827Z,67.17
2023-12-09T02:48:13.507Z,68.25
2023-12-09T02:50:41.341Z,68.13
2023-12-09T02:53:09.024Z,67.48
2023-12-09T02:55:36.421Z,67.73
2023-12-09T02:58:03.916Z,67.05
2023-12-09T03:00:31.675Z,67.81
2023-12-09T03:02:59.278Z,68.14
2023-12-09T03:05:26.824Z,66.81
2023-12-09T03:07:54.585Z,66.76
2023-12-09T03:10:22.122Z,66.67
2023-12-09T03:12:49.507Z,67.35
2023-12-09T03:15:17.166Z,67.38
2023-12-09T03:17:44.642Z,67.96
2023-12-09T03:20:12.275Z,67.52
2023-12-09T03:22:40.045Z,67.55
2023-12-09T03:25:07.696Z,67.60
2023-12-09T03:27:35.178Z,66.66
2023-12-09T03:30:03.862Z,67.38
2023-12-09T03:32:32.139Z,67.04
2023-12-09T03:34:59.560Z,66.08
2023-12-09T03:37:27.888Z,65.74
2023-12-09T03:39:55.308Z,65.58
2023-12-09T03:42:22.784Z,66.30
2023-12-09T03:44:50.425Z,67.10
2023-12-09T03:47:25.395Z,66.70
2023-12-09T03:49:56.838Z,66.04
2023-12-09T03:52:24.811Z,66.14
2023-12-09T03:54:52.386Z,66.34
2023-12-09T03:57:20.107Z,66.79
2023-12-09T03:59:47.554Z,66.70
2023-12-09T04:02:15.613Z,66.42
2023-12-09T04:04:43.262Z,65.88
2023-12-09T04:07:10.676Z,66.14
2023-12-09T04:09:38.305Z,66.48
2023-12-09T04:12:06.194Z,66.37
2023-12-09T04:14:33.598Z,67.17
2023-12-09T04:17:00.971Z,66.21
2023-12-09T04:19:30.969Z,66.69
2023-12-09T04:21:58.456Z,68.22
2023-12-09T04:24:25.847Z,67.81
2023-12-09T04:26:53.556Z,68.88
2023-12-09T04:29:21.273Z,69.19
2023-12-09T04:31:48.759Z,68.21
2023-12-09T04:34:16.489Z,67.89
2023-12-09T04:36:43.947Z,67.94
2023-12-09T04:39:11.448Z,66.84
2023-12-09T04:41:39.329Z,67.43
2023-12-09T04:44:06.832Z,67.71
2023-12-09T04:46:34.289Z,67.46
2023-12-09T04:49:01.995Z,66.77
2023-12-09T04:51:29.472Z,66.72
2023-12-09T04:53:56.977Z,66.50
2023-12-09T04:56:24.980Z,66.29
2023-12-09T04:58:52.376Z,66.41
2023-12-09T05:01:19.831Z,66.57
2023-12-09T05:03:48.332Z,67.14
2023-12-09T05:06:15.990Z,66.95
2023-12-09T05:08:43.644Z,67.37
2023-12-09T05:11:11.432Z,66.53
2023-12-09T05:13:39.081Z,66.52
2023-12-09T05:16:06.924Z,66.75
2023-12-09T05:18:36.103Z,65.81
2023-12-09T05:21:06.530Z,66.51
2023-12-09T05:23:34.596Z,65.91
2023-12-09T05:26:02.283Z,65.71
2023-12-09T05:28:31.276Z,64.75
2023-12-09T05:30:58.740Z,64.95
2023-12-09T05:33:26.539Z,64.80
2023-12-09T05:35:54.049Z,64.79
2023-12-09T05:38:21.440Z,65.55
2023-12-09T05:40:49.345Z,65.48
2023-12-09T05:43:16.794Z,66.04
2023-12-09T05:45:44.225Z,65.65
2023-12-09T05:48:12.091Z,66.18
2023-12-09T05:50:39.660Z,66.17
2023-12-09T05:53:08.313Z,66.30
2023-12-09T05:55:36.021Z,65.77
2023-12-09T05:58:03.981Z,65.72
2023-12-09T06:00:32.801Z,65.57
2023-12-09T06:03:01.624Z,66.37
2023-12-09T06:05:29.060Z,67.52
2023-12-09T06:07:56.480Z,66.97
2023-12-09T06:10:24.159Z,66.45
2023-12-09T06:12:51.573Z,66.67
2023-12-09T06:15:20.117Z,66.87
2023-12-09T06:17:47.803Z,66.21
2023-12-09T06:20:15.881Z,65.76
2023-12-09T06:22:43.836Z,65.56
2023-12-09T06:25:11.531Z,66.24
2023-12-09T06:27:39.021Z,65.94
2023-12-09T06:30:07.178Z,66.12
2023-12-09T06:32:34.915Z,66.67
2023-12-09T06:35:02.667Z,66.47
2023-12-09T06:37:30.145Z,66.41
2023-12-09T06:39:57.916Z,65.67
2023-12-09T06:42:25.818Z,65.35
2023-12-09T06:44:53.504Z,65.58
2023-12-09T06:47:21.250Z,65.89
2023-12-09T06:49:48.884Z,66.44
2023-12-09T06:52:16.428Z,66.12
2023-12-09T06:54:44.145Z,65.66
2023-12-09T06:57:11.625Z,66.77
2023-12-09T06:59:39.064Z,65.92
2023-12-09T07:02:06.685Z,65.89
2023-12-09T07:04:37.285Z,66.21
2023-12-09T07:07:04.765Z,65.85
2023-12-09T07:09:32.465Z,65.67
2023-12-09T07:12:02.398Z,65.66
2023-12-09T07:14:30.500Z,67.52
2023-12-09T07:16:58.233Z,67.11
2023-12-09T07:19:25.711Z,67.48
2023-12-09T07:21:53.904Z,69.21
2023-12-09T07:24:21.633Z,67.37
2023-12-09T07:26:49.033Z,67.38
2023-12-09T07:29:16.460Z,67.39
2023-12-09T07:31:44.155Z,67.58
2023-12-09T07:34:17.530Z,67.41
2023-12-09T07:36:45.321Z,66.69
2023-12-09T07:39:12.740Z,68.90
2023-12-09T07:41:41.480Z,69.37
2023-12-09T07:44:09.244Z,70.10
2023-12-09T07:46:37.238Z,68.91
2023-12-09T07:49:04.719Z,69.59
2023-12-09T07:51:32.457Z,68.82
2023-12-09T07:53:59.967Z,69.96
2023-12-09T07:56:27.370Z,70.33
2023-12-09T07:58:55.100Z,70.34
2023-12-09T08:01:22.594Z,68.77
2023-12-09T08:03:50.453Z,69.60
2023-12-09T08:06:17.969Z,67.81
2023-12-09T08:08:45.344Z,69.72
2023-12-09T08:11:13.079Z,69.67
2023-12-09T08:13:40.454Z,69.73
2023-12-09T08:16:08.246Z,70.82
2023-12-09T08:18:36.003Z,70.01
2023-12-09T08:21:03.541Z,68.69
2023-12-09T08:23:31.067Z,69.21
2023-12-09T08:25:58.707Z,68.11
2023-12-09T08:28:28.612Z,69.28
2023-12-09T08:30:56.125Z,67.89
2023-12-09T08:33:23.917Z,68.30
2023-12-09T08:35:51.376Z,69.51
2023-12-09T08:38:18.758Z,69.46
2023-12-09T08:40:46.414Z,68.01
2023-12-09T08:43:13.820Z,69.58
2023-12-09T08:45:41.317Z,68.46
2023-12-09T08:48:10.341Z,69.92
2023-12-09T08:50:37.879Z,69.46
2023-12-09T08:53:05.629Z,68.85
2023-12-09T08:55:33.300Z,68.69
2023-12-09T08:58:00.706Z,69.91
2023-12-09T09:00:28.875Z,69.41
2023-12-09T09:02:57.141Z,69.42
2023-12-09T09:05:25.390Z,69.43
2023-12-09T09:07:52.916Z,67.98
2023-12-09T09:10:20.772Z,67.56
2023-12-09T09:12:48.529Z,68.28
2023-12-09T09:15:17.514Z,66.35
2023-12-09T09:17:45.270Z,67.62
2023-12-09T09:20:12.760Z,70.84
2023-12-09T09:22:42.155Z,67.91
2023-12-09T09:25:14.290Z,67.60
2023-12-09T09:27:41.880Z,67.96
2023-12-09T09:30:09.484Z,66.26
2023-12-09T09:32:37.182Z,68.50
2023-12-09T09:35:05.024Z,68.48
2023-12-09T09:37:32.518Z,67.80
2023-12-09T09:40:00.259Z,68.17
2023-12-09T09:42:33.583Z,67.45
2023-12-09T09:45:27.479Z,70.63
2023-12-09T09:47:58.944Z,71.10
2023-12-09T09:50:27.689Z,71.13
2023-12-09T09:52:55.330Z,70.37
2023-12-09T09:55:24.453Z,70.00
2023-12-09T09:57:52.172Z,70.21
2023-12-09T10:00:21.010Z,70.31
2023-12-09T10:02:54.422Z,70.57
2023-12-09T10:05:23.762Z,71.25
2023-12-09T10:07:52.694Z,69.83
2023-12-09T10:10:20.132Z,69.27
2023-12-09T10:12:47.819Z,68.77
2023-12-09T10:15:15.607Z,68.62
2023-12-09T10:17:43.138Z,67.98
2023-12-09T10:20:11.978Z,68.41
2023-12-09T10:22:40.710Z,69.04
2023-12-09T10:25:08.916Z,70.03
2023-12-09T10:27:36.522Z,71.48
2023-12-09T10:30:04.752Z,70.06
2023-12-09T10:32:34.105Z,68.89
2023-12-09T10:35:04.527Z,69.25
2023-12-09T10:37:33.405Z,68.74
2023-12-09T10:40:03.739Z,69.48
2023-12-09T10:42:31.647Z,69.39
2023-12-09T10:45:03.284Z,68.46
2023-12-09T10:47:30.850Z,69.64
2023-12-09T10:49:58.428Z,70.88
2023-12-09T10:52:26.325Z,69.53
2023-12-09T10:54:53.842Z,70.17
2023-12-09T10:57:21.263Z,68.42
2023-12-09T10:59:48.955Z,67.79
2023-12-09T11:02:19.125Z,67.37
2023-12-09T11:04:47.017Z,67.87
2023-12-09T11:07:16.411Z,66.88
2023-12-09T11:09:44.099Z,67.01
2023-12-09T11:12:12.020Z,69.29
2023-12-09T11:14:39.737Z,68.79
2023-12-09T11:17:34.814Z,69.45
2023-12-09T11:20:11.466Z,70.13
2023-12-09T11:22:43.193Z,69.81
2023-12-09T11:25:20.259Z,68.43
2023-12-09T11:27:50.261Z,71.45
2023-12-09T11:30:39.450Z,69.73
2023-12-09T11:33:07.028Z,69.32
2023-12-09T11:35:38.432Z,68.51
2023-12-09T11:38:07.189Z,69.83
2023-12-09T11:40:34.912Z,68.09
2023-12-09T11:43:09.572Z,68.70
2023-12-09T11:45:38.141Z,68.03
2023-12-09T11:48:06.494Z,67.76
2023-12-09T11:50:34.010Z,66.79
2023-12-09T11:53:01.801Z,68.39
2023-12-09T11:55:30.389Z,70.19
2023-12-09T11:57:57.932Z,67.85
2023-12-09T12:00:25.713Z,66.78
2023-12-09T12:02:53.372Z,66.84
2023-12-09T12:05:21.127Z,66.65
2023-12-09T12:07:48.679Z,68.49
2023-12-09T12:10:16.477Z,67.14
2023-12-09T12:12:45.386Z,67.04
2023-12-09T12:15:13.815Z,67.12
2023-12-09T12:17:42.536Z,65.88
2023-12-09T12:20:13.204Z,66.16
2023-12-09T12:22:42.022Z,66.68
2023-12-09T12:25:10.477Z,66.53
2023-12-09T12:27:43.962Z,65.41
2023-12-09T12:30:12.307Z,64.56
2023-12-09T12:32:39.936Z,65.74
2023-12-09T12:35:08.610Z,64.93
2023-12-09T12:37:36.442Z,65.21
2023-12-09T12:40:04.467Z,66.03
2023-12-09T12:42:33.314Z,65.57
2023-12-09T12:45:01.207Z,65.05
2023-12-09T12:47:29.496Z,64.10
2023-12-09T12:49:57.019Z,64.04
2023-12-09T12:52:25.160Z,65.11
2023-12-09T12:54:52.706Z,64.67
2023-12-09T12:57:20.779Z,65.40
2023-12-09T12:59:48.913Z,64.48
2023-12-09T13:02:16.368Z,65.65
2023-12-09T13:04:43.789Z,64.33
2023-12-09T13:07:11.510Z,65.93
2023-12-09T13:09:39.074Z,65.16
2023-12-09T13:12:08.240Z,64.55
2023-12-09T13:14:36.006Z,64.53
2023-12-09T13:17:06.356Z,66.42
2023-12-09T13:19:33.886Z,68.01
2023-12-09T13:22:01.634Z,69.25
2023-12-09T13:24:29.346Z,67.92
2023-12-09T13:26:56.736Z,67.82
2023-12-09T13:29:24.594Z,67.92
2023-12-09T13:31:52.067Z,67.64
2023-12-09T13:34:19.555Z,68.60
2023-12-09T13:36:47.518Z,66.90
2023-12-09T13:39:16.507Z,66.50
2023-12-09T13:41:43.952Z,66.34
2023-12-09T13:44:11.659Z,67.20
2023-12-09T13:46:41.541Z,67.49
2023-12-09T13:49:09.182Z,66.19
2023-12-09T13:51:37.411Z,70.88
2023-12-09T13:54:05.046Z,72.66
2023-12-09T13:56:32.546Z,71.86
2023-12-09T13:59:00.288Z,73.30
2023-12-09T14:01:27.780Z,71.37
2023-12-09T14:03:55.746Z,69.01
2023-12-09T14:06:23.585Z,71.23
2023-12-09T14:08:51.180Z,72.25
2023-12-09T14:11:19.601Z,74.04
2023-12-09T14:13:47.064Z,74.42
2023-12-09T14:16:14.492Z,73.45
2023-12-09T14:18:42.378Z,73.06
2023-12-09T14:21:09.953Z,75.68
2023-12-09T14:23:37.737Z,75.51
2023-12-09T14:26:05.812Z,75.78
2023-12-09T14:28:33.235Z,73.91
2023-12-09T14:31:00.627Z,75.00
2023-12-09T14:33:28.532Z,75.37
2023-12-09T14:35:56.084Z,74.13
2023-12-09T14:38:23.493Z,74.99
2023-12-09T14:40:51.249Z,74.00
2023-12-09T14:43:18.837Z,75.59
2023-12-09T14:45:46.295Z,75.25
2023-12-09T14:48:15.305Z,74.84
2023-12-09T14:50:42.901Z,72.94
2023-12-09T14:53:13.814Z,75.57
2023-12-09T14:55:42.209Z,75.30
2023-12-09T14:58:10.014Z,76.08
2023-12-09T15:00:38.002Z,76.26
2023-12-09T15:03:06.071Z,76.14
2023-12-09T15:05:33.694Z,76.16
2023-12-09T15:08:02.554Z,76.65
2023-12-09T15:10:30.286Z,78.32
2023-12-09T15:12:57.743Z,75.60
2023-12-09T15:15:25.193Z,75.62
2023-12-09T15:17:53.081Z,76.14
2023-12-09T15:20:20.933Z,75.49
2023-12-09T15:22:50.438Z,75.46
2023-12-09T15:25:18.395Z,76.54
2023-12-09T15:27:47.141Z,76.37
2023-12-09T15:30:14.989Z,75.90
2023-12-09T15:32:45.399Z,75.11
2023-12-09T15:35:12.960Z,75.18
2023-12-09T15:37:41.051Z,74.78
2023-12-09T15:40:12.041Z,75.66
2023-12-09T15:42:39.892Z,75.48
2023-12-09T15:45:07.905Z,74.66
2023-12-09T15:47:35.625Z,75.33
2023-12-09T15:50:04.467Z,75.34
2023-12-09T15:52:32.082Z,74.97
2023-12-09T15:54:59.822Z,74.29
2023-12-09T15:57:27.276Z,74.57
2023-12-09T15:59:55.024Z,74.27
2023-12-09T16:02:23.165Z,73.75
2023-12-09T16:04:50.867Z,75.40
2023-12-09T16:07:18.370Z,75.67
2023-12-09T16:09:51.945Z,76.25
2023-12-09T16:12:21.435Z,76.72
2023-12-09T16:14:53.122Z,75.32
2023-12-09T16:17:21.226Z,75.89
2023-12-09T16:19:49.063Z,75.03
2023-12-09T16:22:17.730Z,73.99
2023-12-09T16:24:47.176Z,73.92
2023-12-09T16:27:15.830Z,75.54
2023-12-09T16:29:43.320Z,76.24
2023-12-09T16:32:11.929Z,77.92
2023-12-09T16:34:39.760Z,76.20
2023-12-09T16:37:07.260Z,76.37
2023-12-09T16:39:35.012Z,77.21
2023-12-09T16:42:03.016Z,75.85
2023-12-09T16:44:30.559Z,75.83
2023-12-09T16:46:58.276Z,74.86
2023-12-09T16:49:25.807Z,75.41
2023-12-09T16:51:53.297Z,75.22
2023-12-09T16:54:22.078Z,73.98
2023-12-09T16:56:50.429Z,75.76
2023-12-09T16:59:19.295Z,74.39
2023-12-09T17:01:48.185Z,75.29
2023-12-09T17:04:16.306Z,73.74
2023-12-09T17:06:44.623Z,74.05
2023-12-09T17:09:12.408Z,76.39
2023-12-09T17:11:39.954Z,75.51
2023-12-09T17:14:07.332Z,73.94
2023-12-09T17:16:35.510Z,75.92
2023-12-09T17:19:03.320Z,75.26
2023-12-09T17:21:30.925Z,75.04
2023-12-09T17:23:58.689Z,74.07
2023-12-09T17:26:26.128Z,73.87
2023-12-09T17:28:53.499Z,74.75
2023-12-09T17:31:21.188Z,74.73
2023-12-09T17:33:48.716Z,73.83
2023-12-09T17:36:17.109Z,73.16
2023-12-09T17:38:44.870Z,73.94
2023-12-09T17:41:12.315Z,73.17
2023-12-09T17:43:39.764Z,73.27
2023-12-09T17:46:07.524Z,73.06
2023-12-09T17:48:35.300Z,75.65
2023-12-09T17:51:03.254Z,76.18
2023-12-09T17:53:30.970Z,75.83
2023-12-09T17:55:58.353Z,76.91
2023-12-09T17:58:25.795Z,76.71
2023-12-09T18:00:54.130Z,74.78
2023-12-09T18:03:22.050Z,75.36
2023-12-09T18:05:51.778Z,74.52
2023-12-09T18:08:19.922Z,75.66
2023-12-09T18:10:47.613Z,74.16
2023-12-09T18:13:15.148Z,74.69
2023-12-09T18:15:45.564Z,73.07
2023-12-09T18:18:13.948Z,74.35
2023-12-09T18:20:41.390Z,75.15
2023-12-09T18:23:08.907Z,74.65
2023-12-09T18:25:36.762Z,78.59
2023-12-09T18:28:04.373Z,74.84
2023-12-09T18:30:32.570Z,74.18
2023-12-09T18:33:00.942Z,75.78
2023-12-09T18:35:28.370Z,74.60
2023-12-09T18:37:55.913Z,73.64
2023-12-09T18:40:24.270Z,75.68
2023-12-09T18:42:52.526Z,75.63
2023-12-09T18:45:20.361Z,73.40
2023-12-09T18:47:48.630Z,74.30
2023-12-09T18:50:16.200Z,73.67
2023-12-09T18:52:43.628Z,73.18
2023-12-09T18:55:12.052Z,74.34
2023-12-09T18:57:40.814Z,74.62
2023-12-09T19:00:08.876Z,74.57
2023-12-09T19:02:36.819Z,75.80
2023-12-09T19:05:04.636Z,77.56
2023-12-09T19:07:32.064Z,77.43
2023-12-09T19:10:04.766Z,77.40
2023-12-09T19:12:33.751Z,75.70
2023-12-09T19:15:01.562Z,74.97
2023-12-09T19:17:29.314Z,75.22
2023-12-09T19:19:56.834Z,75.29
2023-12-09T19:22:24.759Z,76.98
2023-12-09T19:24:52.271Z,77.77
2023-12-09T19:27:22.076Z,77.34
2023-12-09T19:29:49.808Z,77.13
2023-12-09T19:32:17.476Z,76.51
2023-12-09T19:34:45.041Z,79.30
2023-12-09T19:37:13.725Z,77.49
2023-12-09T19:39:41.681Z,77.44
2023-12-09T19:42:09.196Z,76.85
2023-12-09T19:44:36.893Z,76.61
2023-12-09T19:47:04.437Z,77.14
2023-12-09T19:49:32.367Z,78.86
2023-12-09T19:52:00.080Z,78.34
2023-12-09T19:54:27.493Z,78.49
2023-12-09T19:56:55.748Z,78.27
2023-12-09T19:59:23.577Z,77.63
2023-12-09T20:01:51.012Z,78.35
2023-12-09T20:04:18.895Z,79.29
2023-12-09T20:06:46.877Z,78.38
2023-12-09T20:09:14.962Z,77.66
2023-12-09T20:11:42.790Z,79.12
2023-12-09T20:14:10.191Z,78.66
2023-12-09T20:16:37.617Z,78.37
2023-12-09T20:19:06.894Z,77.25
2023-12-09T20:21:36.385Z,79.73
2023-12-09T20:24:04.047Z,80.66
2023-12-09T20:26:32.752Z,81.52
2023-12-09T20:29:00.300Z,80.22
2023-12-09T20:31:27.762Z,78.79
2023-12-09T20:33:55.542Z,78.19
2023-12-09T20:36:23.044Z,77.66
2023-12-09T20:38:50.472Z,78.88
2023-12-09T20:41:18.253Z,78.52
2023-12-09T20:43:45.699Z,78.71
2023-12-09T20:46:13.246Z,77.29
2023-12-09T20:48:40.974Z,77.51
2023-12-09T20:51:09.002Z,77.61
2023-12-09T20:53:36.568Z,79.00
2023-12-09T20:56:05.593Z,77.75
2023-12-09T20:58:34.350Z,77.06
2023-12-09T21:01:02.708Z,77.66
2023-12-09T21:03:31.300Z,79.00
2023-12-09T21:05:58.830Z,78.97
2023-12-09T21:08:26.228Z,78.66
2023-12-09T21:10:53.890Z,78.66
2023-12-09T21:13:21.316Z,81.43
2023-12-09T21:15:48.821Z,82.30
2023-12-09T21:18:16.738Z,82.07
2023-12-09T21:20:44.265Z,79.67
2023-12-09T21:23:11.723Z,81.70
2023-12-09T21:25:39.434Z,79.48
2023-12-09T21:28:08.913Z,79.57
2023-12-09T21:30:36.803Z,81.38
2023-12-09T21:33:04.959Z,81.98
2023-12-09T21:35:32.498Z,79.78
2023-12-09T21:37:59.939Z,80.30
2023-12-09T21:40:27.655Z,78.93
2023-12-09T21:42:57.660Z,79.20
2023-12-09T21:45:26.318Z,80.41
2023-12-09T21:47:55.708Z,80.91
2023-12-09T21:50:24.220Z,80.35
2023-12-09T21:52:51.841Z,81.57
2023-12-09T21:55:21.022Z,84.09
2023-12-09T21:57:48.542Z,82.54
2023-12-09T22:00:16.404Z,81.95
2023-12-09T22:02:44.468Z,82.37
2023-12-09T22:05:11.982Z,80.91
2023-12-09T22:07:39.632Z,81.28
2023-12-09T22:10:07.773Z,79.31
2023-12-09T22:12:36.434Z,79.69
2023-12-09T22:15:06.208Z,80.44
2023-12-09T22:17:34.044Z,82.01
2023-12-09T22:20:02.919Z,81.83
2023-12-09T22:22:38.047Z,81.40
2023-12-09T22:25:15.039Z,80.35
2023-12-09T22:27:42.513Z,83.21
2023-12-09T22:30:10.703Z,82.43
2023-12-09T22:32:38.420Z,81.97
2023-12-09T22:35:06.212Z,80.95
2023-12-09T22:37:33.657Z,81.89
2023-12-09T22:40:01.557Z,81.38
2023-12-09T22:42:29.615Z,80.18
2023-12-09T22:44:57.404Z,79.87
2023-12-09T22:47:25.365Z,81.51
2023-12-09T22:49:52.986Z,79.13
2023-12-09T22:52:20.440Z,78.05
2023-12-09T22:54:48.159Z,78.84
2023-12-09T22:57:16.445Z,79.12
2023-12-09T22:59:46.165Z,79.09
2023-12-09T23:02:13.879Z,79.40
2023-12-09T23:04:41.354Z,78.53
2023-12-09T23:07:08.876Z,79.59
2023-12-09T23:09:36.734Z,81.71
2023-12-09T23:12:04.580Z,82.81
2023-12-09T23:14:32.025Z,83.62
2023-12-09T23:16:59.790Z,83.26
2023-12-09T23:19:29.359Z,83.46
2023-12-09T23:21:56.841Z,82.34
2023-12-09T23:24:24.552Z,83.10
2023-12-09T23:26:52.138Z,83.45
2023-12-09T23:29:19.572Z,82.15
2023-12-09T23:31:47.320Z,83.86
2023-12-09T23:34:16.823Z,84.17
2023-12-09T23:36:44.628Z,83.78
2023-12-09T23:39:13.416Z,83.59
2023-12-09T23:41:40.817Z,83.70
2023-12-09T23:44:08.602Z,82.74
2023-12-09T23:46:36.305Z,82.66
2023-12-09T23:49:03.822Z,82.81
2023-12-09T23:51:31.511Z,81.03
2023-12-09T23:53:59.344Z,81.33
2023-12-09T23:56:27.785Z,80.67
2023-12-09T23:58:55.228Z,80.55
